sensor_id;sensor_type;location;lat;lon;timestamp;temperature;humidity
44705;DHT22;30431;48.520;9.046;2023-12-20T00:01:23;7.20;98.40
44705;DHT22;30431;48.520;9.046;2023-12-20T00:03:50;7.20;98.80
44705;DHT22;30431;48.520;9.046;2023-12-20T00:06:17;7.20;98.80
44705;DHT22;30431;48.520;9.046;2023-12-20T00:08:44;7.20;98.80
44705;DHT22;30431;48.520;9.046;2023-12-20T00:11:11;7.20;98.70
44705;DHT22;30431;48.520;9.046;2023-12-20T00:13:38;7.20;98.50
44705;DHT22;30431;48.520;9.046;2023-12-20T00:16:07;7.20;98.30
44705;DHT22;30431;48.520;9.046;2023-12-20T00:18:34;7.20;98.70
44705;DHT22;30431;48.520;9.046;2023-12-20T00:21:03;7.10;98.80
44705;DHT22;30431;48.520;9.046;2023-12-20T00:23:33;7.10;99.00
44705;DHT22;30431;48.520;9.046;2023-12-20T00:26:00;7.10;99.30
44705;DHT22;30431;48.520;9.046;2023-12-20T00:28:29;7.20;99.10
44705;DHT22;30431;48.520;9.046;2023-12-20T00:30:56;7.10;98.80
44705;DHT22;30431;48.520;9.046;2023-12-20T00:33:26;7.20;98.90
44705;DHT22;30431;48.520;9.046;2023-12-20T00:35:53;7.10;98.90
44705;DHT22;30431;48.520;9.046;2023-12-20T00:38:20;7.10;98.90
44705;DHT22;30431;48.520;9.046;2023-12-20T00:40:47;7.10;98.90
44705;DHT22;30431;48.520;9.046;2023-12-20T00:43:16;7.10;98.90
44705;DHT22;30431;48.520;9.046;2023-12-20T00:45:43;7.10;98.90
44705;DHT22;30431;48.520;9.046;2023-12-20T00:48:10;7.10;99.00
44705;DHT22;30431;48.520;9.046;2023-12-20T00:50:40;7.10;98.90
44705;DHT22;30431;48.520;9.046;2023-12-20T00:53:07;7.10;98.90
44705;DHT22;30431;48.520;9.046;2023-12-20T00:55:36;7.10;98.90
44705;DHT22;30431;48.520;9.046;2023-12-20T00:58:03;7.10;99.00
44705;DHT22;30431;48.520;9.046;2023-12-20T01:00:33;7.10;99.10
44705;DHT22;30431;48.520;9.046;2023-12-20T01:03:02;7.00;99.50
44705;DHT22;30431;48.520;9.046;2023-12-20T01:05:31;7.00;99.40
44705;DHT22;30431;48.520;9.046;2023-12-20T01:07:58;7.00;99.40
44705;DHT22;30431;48.520;9.046;2023-12-20T01:10:25;7.00;99.40
44705;DHT22;30431;48.520;9.046;2023-12-20T01:12:57;7.00;99.50
44705;DHT22;30431;48.520;9.046;2023-12-20T01:15:26;7.00;99.60
44705;DHT22;30431;48.520;9.046;2023-12-20T01:17:56;7.00;99.70
44705;DHT22;30431;48.520;9.046;2023-12-20T01:20:25;7.00;99.90
44705;DHT22;30431;48.520;9.046;2023-12-20T01:22:54;7.00;99.90
44705;DHT22;30431;48.520;9.046;2023-12-20T01:25:21;7.00;99.90
44705;DHT22;30431;48.520;9.046;2023-12-20T01:27:49;7.00;99.90
44705;DHT22;30431;48.520;9.046;2023-12-20T01:30:19;7.00;99.90
44705;DHT22;30431;48.520;9.046;2023-12-20T01:32:50;7.10;99.90
44705;DHT22;30431;48.520;9.046;2023-12-20T01:35:18;7.00;99.90
44705;DHT22;30431;48.520;9.046;2023-12-20T01:37:45;7.00;99.90
44705;DHT22;30431;48.520;9.046;2023-12-20T01:40:12;7.00;99.90
44705;DHT22;30431;48.520;9.046;2023-12-20T01:42:42;7.00;99.90
44705;DHT22;30431;48.520;9.046;2023-12-20T01:45:09;7.00;99.90
44705;DHT22;30431;48.520;9.046;2023-12-20T01:47:36;7.00;99.90
44705;DHT22;30431;48.520;9.046;2023-12-20T01:50:04;7.00;99.90
44705;DHT22;30431;48.520;9.046;2023-12-20T01:52:32;6.90;99.90
44705;DHT22;30431;48.520;9.046;2023-12-20T01:55:01;6.90;99.90
44705;DHT22;30431;48.520;9.046;2023-12-20T01:57:33;6.90;99.90
44705;DHT22;30431;48.520;9.046;2023-12-20T02:00:02;6.80;99.90
44705;DHT22;30431;48.520;9.046;2023-12-20T02:02:30;6.80;99.90
44705;DHT22;30431;48.520;9.046;2023-12-20T02:05:00;6.80;99.90
44705;DHT22;30431;48.520;9.046;2023-12-20T02:07:31;6.80;99.90
44705;DHT22;30431;48.520;9.046;2023-12-20T02:10:02;6.80;99.90
44705;DHT22;30431;48.520;9.046;2023-12-20T02:12:29;6.80;99.90
44705;DHT22;30431;48.520;9.046;2023-12-20T02:14:56;6.80;99.90
44705;DHT22;30431;48.520;9.046;2023-12-20T02:17:25;6.70;99.90
44705;DHT22;30431;48.520;9.046;2023-12-20T02:19:53;6.70;99.90
44705;DHT22;30431;48.520;9.046;2023-12-20T02:22:20;6.80;99.90
44705;DHT22;30431;48.520;9.046;2023-12-20T02:24:48;6.80;99.90
44705;DHT22;30431;48.520;9.046;2023-12-20T02:27:15;6.80;99.90
44705;DHT22;30431;48.520;9.046;2023-12-20T02:29:47;6.80;99.90
44705;DHT22;30431;48.520;9.046;2023-12-20T02:32:16;6.80;99.90
44705;DHT22;30431;48.520;9.046;2023-12-20T02:34:47;6.70;99.90
44705;DHT22;30431;48.520;9.046;2023-12-20T02:37:16;6.70;99.90
44705;DHT22;30431;48.520;9.046;2023-12-20T02:39:44;6.70;99.90
44705;DHT22;30431;48.520;9.046;2023-12-20T02:42:13;6.70;99.90
44705;DHT22;30431;48.520;9.046;2023-12-20T02:44:40;6.70;99.90
44705;DHT22;30431;48.520;9.046;2023-12-20T02:47:07;6.70;99.90
44705;DHT22;30431;48.520;9.046;2023-12-20T02:49:36;6.70;99.90
44705;DHT22;30431;48.520;9.046;2023-12-20T02:52:06;6.70;99.90
44705;DHT22;30431;48.520;9.046;2023-12-20T02:54:35;6.70;99.90
44705;DHT22;30431;48.520;9.046;2023-12-20T02:57:06;6.70;99.90
44705;DHT22;30431;48.520;9.046;2023-12-20T02:59:33;6.70;99.90
44705;DHT22;30431;48.520;9.046;2023-12-20T03:02:00;6.70;99.90
44705;DHT22;30431;48.520;9.046;2023-12-20T03:04:29;6.70;99.90
44705;DHT22;30431;48.520;9.046;2023-12-20T03:06:56;6.60;99.90
44705;DHT22;30431;48.520;9.046;2023-12-20T03:09:23;6.60;99.90
44705;DHT22;30431;48.520;9.046;2023-12-20T03:11:50;6.70;99.90
44705;DHT22;30431;48.520;9.046;2023-12-20T03:14:19;6.60;99.90
44705;DHT22;30431;48.520;9.046;2023-12-20T03:16:49;6.60;99.90
44705;DHT22;30431;48.520;9.046;2023-12-20T03:19:17;6.60;99.90
44705;DHT22;30431;48.520;9.046;2023-12-20T03:21:47;6.60;99.90
44705;DHT22;30431;48.520;9.046;2023-12-20T03:24:14;6.60;99.90
44705;DHT22;30431;48.520;9.046;2023-12-20T03:26:41;6.60;99.90
44705;DHT22;30431;48.520;9.046;2023-12-20T03:29:08;6.60;99.90
44705;DHT22;30431;48.520;9.046;2023-12-20T03:31:35;6.60;99.90
44705;DHT22;30431;48.520;9.046;2023-12-20T03:34:06;6.70;99.90
44705;DHT22;30431;48.520;9.046;2023-12-20T03:36:36;6.70;99.90
44705;DHT22;30431;48.520;9.046;2023-12-20T03:39:03;6.70;99.90
44705;DHT22;30431;48.520;9.046;2023-12-20T03:41:30;6.70;99.90
44705;DHT22;30431;48.520;9.046;2023-12-20T03:43:59;6.70;99.90
44705;DHT22;30431;48.520;9.046;2023-12-20T03:46:26;6.60;99.90
44705;DHT22;30431;48.520;9.046;2023-12-20T03:48:53;6.60;99.90
44705;DHT22;30431;48.520;9.046;2023-12-20T03:51:20;6.70;99.90
44705;DHT22;30431;48.520;9.046;2023-12-20T03:53:49;6.70;99.90
44705;DHT22;30431;48.520;9.046;2023-12-20T03:56:19;6.70;99.90
44705;DHT22;30431;48.520;9.046;2023-12-20T03:58:46;6.70;99.90
44705;DHT22;30431;48.520;9.046;2023-12-20T04:01:13;6.60;99.90
44705;DHT22;30431;48.520;9.046;2023-12-20T04:03:41;6.60;99.90
44705;DHT22;30431;48.520;9.046;2023-12-20T04:06:08;6.60;99.90
44705;DHT22;30431;48.520;9.046;2023-12-20T04:08:35;6.60;99.90
44705;DHT22;30431;48.520;9.046;2023-12-20T04:11:02;6.60;99.90
44705;DHT22;30431;48.520;9.046;2023-12-20T04:13:29;6.60;99.90
44705;DHT22;30431;48.520;9.046;2023-12-20T04:15:59;6.60;99.90
44705;DHT22;30431;48.520;9.046;2023-12-20T04:18:26;6.60;99.90
44705;DHT22;30431;48.520;9.046;2023-12-20T04:20:53;6.60;99.90
44705;DHT22;30431;48.520;9.046;2023-12-20T04:23:22;6.50;99.90
44705;DHT22;30431;48.520;9.046;2023-12-20T04:25:49;6.50;99.90
44705;DHT22;30431;48.520;9.046;2023-12-20T04:28:16;6.50;99.90
44705;DHT22;30431;48.520;9.046;2023-12-20T04:30:45;6.60;99.90
44705;DHT22;30431;48.520;9.046;2023-12-20T04:33:12;6.60;99.90
44705;DHT22;30431;48.520;9.046;2023-12-20T04:35:39;6.60;99.90
44705;DHT22;30431;48.520;9.046;2023-12-20T04:38:07;6.50;99.90
44705;DHT22;30431;48.520;9.046;2023-12-20T04:40:36;6.50;99.90
44705;DHT22;30431;48.520;9.046;2023-12-20T04:43:04;6.60;99.90
44705;DHT22;30431;48.520;9.046;2023-12-20T04:45:31;6.60;99.90
44705;DHT22;30431;48.520;9.046;2023-12-20T04:47:58;6.60;99.90
44705;DHT22;30431;48.520;9.046;2023-12-20T04:50:29;6.50;99.90
44705;DHT22;30431;48.520;9.046;2023-12-20T04:52:59;6.50;99.90
44705;DHT22;30431;48.520;9.046;2023-12-20T04:55:26;6.40;99.90
44705;DHT22;30431;48.520;9.046;2023-12-20T04:57:53;6.40;99.90
44705;DHT22;30431;48.520;9.046;2023-12-20T05:00:21;6.40;99.90
44705;DHT22;30431;48.520;9.046;2023-12-20T05:02:48;6.40;99.90
44705;DHT22;30431;48.520;9.046;2023-12-20T05:05:15;6.40;99.90
44705;DHT22;30431;48.520;9.046;2023-12-20T05:07:44;6.40;99.90
44705;DHT22;30431;48.520;9.046;2023-12-20T05:10:12;6.40;99.90
44705;DHT22;30431;48.520;9.046;2023-12-20T05:12:41;6.30;99.90
44705;DHT22;30431;48.520;9.046;2023-12-20T05:15:09;6.30;99.90
44705;DHT22;30431;48.520;9.046;2023-12-20T05:17:36;6.30;99.90
44705;DHT22;30431;48.520;9.046;2023-12-20T05:20:06;6.30;99.90
44705;DHT22;30431;48.520;9.046;2023-12-20T05:22:37;6.30;99.90
44705;DHT22;30431;48.520;9.046;2023-12-20T05:25:05;6.30;99.90
44705;DHT22;30431;48.520;9.046;2023-12-20T05:27:32;6.30;99.90
44705;DHT22;30431;48.520;9.046;2023-12-20T05:29:59;6.30;99.90
44705;DHT22;30431;48.520;9.046;2023-12-20T05:32:26;6.30;99.90
44705;DHT22;30431;48.520;9.046;2023-12-20T05:34:53;6.30;99.90
44705;DHT22;30431;48.520;9.046;2023-12-20T05:37:22;6.30;99.90
44705;DHT22;30431;48.520;9.046;2023-12-20T05:39:52;6.30;99.90
44705;DHT22;30431;48.520;9.046;2023-12-20T05:42:19;6.30;99.90
44705;DHT22;30431;48.520;9.046;2023-12-20T05:44:48;6.30;99.90
44705;DHT22;30431;48.520;9.046;2023-12-20T05:47:21;6.30;99.90
44705;DHT22;30431;48.520;9.046;2023-12-20T05:49:50;6.40;99.90
44705;DHT22;30431;48.520;9.046;2023-12-20T05:52:17;6.40;99.90
44705;DHT22;30431;48.520;9.046;2023-12-20T05:54:49;6.30;99.90
44705;DHT22;30431;48.520;9.046;2023-12-20T05:57:16;6.30;99.90
44705;DHT22;30431;48.520;9.046;2023-12-20T05:59:45;6.40;99.90
44705;DHT22;30431;48.520;9.046;2023-12-20T06:02:14;6.40;99.90
44705;DHT22;30431;48.520;9.046;2023-12-20T06:04:45;6.40;99.90
44705;DHT22;30431;48.520;9.046;2023-12-20T06:07:12;6.40;99.90
44705;DHT22;30431;48.520;9.046;2023-12-20T06:09:40;6.40;99.90
44705;DHT22;30431;48.520;9.046;2023-12-20T06:12:07;6.30;99.90
44705;DHT22;30431;48.520;9.046;2023-12-20T06:14:37;6.30;99.90
44705;DHT22;30431;48.520;9.046;2023-12-20T06:17:06;6.40;99.90
44705;DHT22;30431;48.520;9.046;2023-12-20T06:19:35;6.30;99.90
44705;DHT22;30431;48.520;9.046;2023-12-20T06:22:03;6.30;99.90
44705;DHT22;30431;48.520;9.046;2023-12-20T06:24:30;6.40;99.90
44705;DHT22;30431;48.520;9.046;2023-12-20T06:26:59;6.30;99.90
44705;DHT22;30431;48.520;9.046;2023-12-20T06:29:26;6.30;99.90
44705;DHT22;30431;48.520;9.046;2023-12-20T06:31:55;6.30;99.90
44705;DHT22;30431;48.520;9.046;2023-12-20T06:34:22;6.30;99.90
44705;DHT22;30431;48.520;9.046;2023-12-20T06:36:50;6.20;99.90
44705;DHT22;30431;48.520;9.046;2023-12-20T06:39:16;6.20;99.90
44705;DHT22;30431;48.520;9.046;2023-12-20T06:41:46;6.10;99.90
44705;DHT22;30431;48.520;9.046;2023-12-20T06:44:15;6.20;99.90
44705;DHT22;30431;48.520;9.046;2023-12-20T06:46:43;6.20;99.90
44705;DHT22;30431;48.520;9.046;2023-12-20T06:49:13;6.20;99.90
44705;DHT22;30431;48.520;9.046;2023-12-20T06:51:42;6.20;99.90
44705;DHT22;30431;48.520;9.046;2023-12-20T06:54:12;6.20;99.90
44705;DHT22;30431;48.520;9.046;2023-12-20T06:56:39;6.20;99.90
44705;DHT22;30431;48.520;9.046;2023-12-20T06:59:06;6.20;99.90
44705;DHT22;30431;48.520;9.046;2023-12-20T07:01:33;6.30;99.90
44705;DHT22;30431;48.520;9.046;2023-12-20T07:04:00;6.30;99.90
44705;DHT22;30431;48.520;9.046;2023-12-20T07:06:29;6.30;99.90
44705;DHT22;30431;48.520;9.046;2023-12-20T07:08:56;6.30;99.90
44705;DHT22;30431;48.520;9.046;2023-12-20T07:11:25;6.30;99.90
44705;DHT22;30431;48.520;9.046;2023-12-20T07:13:53;6.30;99.90
44705;DHT22;30431;48.520;9.046;2023-12-20T07:16:21;6.30;99.90
44705;DHT22;30431;48.520;9.046;2023-12-20T07:18:49;6.40;99.90
44705;DHT22;30431;48.520;9.046;2023-12-20T07:21:16;6.40;99.90
44705;DHT22;30431;48.520;9.046;2023-12-20T07:23:43;6.40;99.90
44705;DHT22;30431;48.520;9.046;2023-12-20T07:26:12;6.50;99.90
44705;DHT22;30431;48.520;9.046;2023-12-20T07:28:40;6.50;99.90
44705;DHT22;30431;48.520;9.046;2023-12-20T07:31:10;6.50;99.90
44705;DHT22;30431;48.520;9.046;2023-12-20T07:33:37;6.50;99.90
44705;DHT22;30431;48.520;9.046;2023-12-20T07:36:06;6.50;99.90
44705;DHT22;30431;48.520;9.046;2023-12-20T07:41:25;6.60;99.90
44705;DHT22;30431;48.520;9.046;2023-12-20T07:43:52;6.70;99.90
44705;DHT22;30431;48.520;9.046;2023-12-20T07:46:27;6.70;99.90
44705;DHT22;30431;48.520;9.046;2023-12-20T07:48:54;6.70;99.90
44705;DHT22;30431;48.520;9.046;2023-12-20T07:51:24;6.80;99.90
44705;DHT22;30431;48.520;9.046;2023-12-20T07:53:52;6.70;99.90
44705;DHT22;30431;48.520;9.046;2023-12-20T07:56:19;6.80;99.90
44705;DHT22;30431;48.520;9.046;2023-12-20T07:58:48;6.80;99.90
44705;DHT22;30431;48.520;9.046;2023-12-20T08:01:23;6.90;99.90
44705;DHT22;30431;48.520;9.046;2023-12-20T08:03:50;6.90;99.90
44705;DHT22;30431;48.520;9.046;2023-12-20T08:06:24;6.90;99.90
44705;DHT22;30431;48.520;9.046;2023-12-20T08:08:51;7.00;99.90
44705;DHT22;30431;48.520;9.046;2023-12-20T08:11:30;7.00;99.90
44705;DHT22;30431;48.520;9.046;2023-12-20T08:13:57;7.00;99.90
44705;DHT22;30431;48.520;9.046;2023-12-20T08:16:32;7.00;99.90
44705;DHT22;30431;48.520;9.046;2023-12-20T08:19:02;7.10;99.90
44705;DHT22;30431;48.520;9.046;2023-12-20T08:21:32;7.00;99.90
44705;DHT22;30431;48.520;9.046;2023-12-20T08:24:02;7.00;99.90
44705;DHT22;30431;48.520;9.046;2023-12-20T08:26:35;7.00;99.90
44705;DHT22;30431;48.520;9.046;2023-12-20T08:29:04;7.00;99.90
44705;DHT22;30431;48.520;9.046;2023-12-20T08:31:34;7.00;99.90
44705;DHT22;30431;48.520;9.046;2023-12-20T08:34:01;7.00;99.90
44705;DHT22;30431;48.520;9.046;2023-12-20T08:36:31;7.10;99.90
44705;DHT22;30431;48.520;9.046;2023-12-20T08:39:00;7.10;99.90
44705;DHT22;30431;48.520;9.046;2023-12-20T08:41:35;7.20;99.90
44705;DHT22;30431;48.520;9.046;2023-12-20T08:44:04;7.20;99.90
44705;DHT22;30431;48.520;9.046;2023-12-20T08:46:33;7.20;99.90
44705;DHT22;30431;48.520;9.046;2023-12-20T08:49:10;7.30;99.90
44705;DHT22;30431;48.520;9.046;2023-12-20T08:51:37;7.30;99.90
44705;DHT22;30431;48.520;9.046;2023-12-20T08:54:08;7.30;99.90
44705;DHT22;30431;48.520;9.046;2023-12-20T08:56:38;7.30;99.90
44705;DHT22;30431;48.520;9.046;2023-12-20T08:59:05;7.30;99.90
44705;DHT22;30431;48.520;9.046;2023-12-20T09:01:32;7.30;99.90
44705;DHT22;30431;48.520;9.046;2023-12-20T09:04:08;7.30;99.90
44705;DHT22;30431;48.520;9.046;2023-12-20T09:06:35;7.20;99.90
44705;DHT22;30431;48.520;9.046;2023-12-20T09:09:04;7.10;99.90
44705;DHT22;30431;48.520;9.046;2023-12-20T09:11:31;7.10;99.90
44705;DHT22;30431;48.520;9.046;2023-12-20T09:13:59;7.00;99.90
44705;DHT22;30431;48.520;9.046;2023-12-20T09:16:26;6.90;99.90
44705;DHT22;30431;48.520;9.046;2023-12-20T09:18:53;7.00;99.90
44705;DHT22;30431;48.520;9.046;2023-12-20T09:21:20;6.90;99.90
44705;DHT22;30431;48.520;9.046;2023-12-20T09:23:49;6.90;99.90
44705;DHT22;30431;48.520;9.046;2023-12-20T09:26:17;6.90;99.90
44705;DHT22;30431;48.520;9.046;2023-12-20T09:28:47;7.00;99.90
44705;DHT22;30431;48.520;9.046;2023-12-20T09:31:14;7.00;99.90
44705;DHT22;30431;48.520;9.046;2023-12-20T09:33:41;7.00;99.90
44705;DHT22;30431;48.520;9.046;2023-12-20T09:36:08;7.10;99.90
44705;DHT22;30431;48.520;9.046;2023-12-20T09:38:35;7.20;99.90
44705;DHT22;30431;48.520;9.046;2023-12-20T09:41:02;7.30;99.90
44705;DHT22;30431;48.520;9.046;2023-12-20T09:43:38;7.30;99.00
44705;DHT22;30431;48.520;9.046;2023-12-20T09:46:12;7.20;98.60
44705;DHT22;30431;48.520;9.046;2023-12-20T09:48:41;7.00;98.30
44705;DHT22;30431;48.520;9.046;2023-12-20T09:51:08;6.80;98.50
44705;DHT22;30431;48.520;9.046;2023-12-20T09:53:37;6.60;99.10
44705;DHT22;30431;48.520;9.046;2023-12-20T09:56:06;6.50;99.90
44705;DHT22;30431;48.520;9.046;2023-12-20T09:58:35;6.40;99.20
44705;DHT22;30431;48.520;9.046;2023-12-20T10:01:03;6.30;99.90
44705;DHT22;30431;48.520;9.046;2023-12-20T10:03:32;6.20;99.90
44705;DHT22;30431;48.520;9.046;2023-12-20T10:06:01;6.30;99.90
44705;DHT22;30431;48.520;9.046;2023-12-20T10:08:28;6.30;99.90
44705;DHT22;30431;48.520;9.046;2023-12-20T10:10:56;6.30;99.90
44705;DHT22;30431;48.520;9.046;2023-12-20T10:13:34;6.40;99.90
44705;DHT22;30431;48.520;9.046;2023-12-20T10:16:01;6.60;99.90
44705;DHT22;30431;48.520;9.046;2023-12-20T10:18:29;6.80;99.90
44705;DHT22;30431;48.520;9.046;2023-12-20T10:21:06;7.00;99.90
44705;DHT22;30431;48.520;9.046;2023-12-20T10:23:37;7.10;99.90
44705;DHT22;30431;48.520;9.046;2023-12-20T10:26:06;7.20;98.90
44705;DHT22;30431;48.520;9.046;2023-12-20T10:28:33;7.30;99.10
44705;DHT22;30431;48.520;9.046;2023-12-20T10:31:01;7.30;98.70
44705;DHT22;30431;48.520;9.046;2023-12-20T10:33:31;7.30;97.20
44705;DHT22;30431;48.520;9.046;2023-12-20T10:36:02;7.40;98.20
44705;DHT22;30431;48.520;9.046;2023-12-20T10:38:30;7.40;96.80
44705;DHT22;30431;48.520;9.046;2023-12-20T10:40:58;7.50;97.10
44705;DHT22;30431;48.520;9.046;2023-12-20T10:43:28;7.60;98.20
44705;DHT22;30431;48.520;9.046;2023-12-20T10:45:58;7.70;97.30
44705;DHT22;30431;48.520;9.046;2023-12-20T10:48:26;7.70;97.20
44705;DHT22;30431;48.520;9.046;2023-12-20T10:50:57;7.70;97.10
44705;DHT22;30431;48.520;9.046;2023-12-20T10:53:25;7.50;97.10
44705;DHT22;30431;48.520;9.046;2023-12-20T10:55:55;7.40;96.90
44705;DHT22;30431;48.520;9.046;2023-12-20T10:58:24;7.20;96.80
44705;DHT22;30431;48.520;9.046;2023-12-20T11:01:00;7.20;95.80
44705;DHT22;30431;48.520;9.046;2023-12-20T11:03:35;7.10;96.40
44705;DHT22;30431;48.520;9.046;2023-12-20T11:06:09;7.10;96.90
44705;DHT22;30431;48.520;9.046;2023-12-20T11:09:01;7.20;97.20
44705;DHT22;30431;48.520;9.046;2023-12-20T11:11:59;7.40;96.80
44705;DHT22;30431;48.520;9.046;2023-12-20T11:14:39;7.80;96.60
44705;DHT22;30431;48.520;9.046;2023-12-20T11:17:11;8.20;95.50
44705;DHT22;30431;48.520;9.046;2023-12-20T11:22:20;8.60;94.30
44705;DHT22;30431;48.520;9.046;2023-12-20T11:24:48;8.60;94.10
44705;DHT22;30431;48.520;9.046;2023-12-20T11:27:15;8.60;93.80
44705;DHT22;30431;48.520;9.046;2023-12-20T11:29:55;8.50;93.10
44705;DHT22;30431;48.520;9.046;2023-12-20T11:34:58;8.40;92.90
44705;DHT22;30431;48.520;9.046;2023-12-20T11:37:30;8.30;93.20
44705;DHT22;30431;48.520;9.046;2023-12-20T11:40:02;8.20;93.10
44705;DHT22;30431;48.520;9.046;2023-12-20T11:42:42;8.10;92.40
44705;DHT22;30431;48.520;9.046;2023-12-20T11:45:19;8.20;91.50
44705;DHT22;30431;48.520;9.046;2023-12-20T11:47:49;8.20;91.10
44705;DHT22;30431;48.520;9.046;2023-12-20T11:50:18;8.20;90.30
44705;DHT22;30431;48.520;9.046;2023-12-20T11:52:48;8.10;90.30
44705;DHT22;30431;48.520;9.046;2023-12-20T11:55:15;8.10;90.40
44705;DHT22;30431;48.520;9.046;2023-12-20T11:57:43;8.00;90.20
44705;DHT22;30431;48.520;9.046;2023-12-20T12:00:14;8.00;89.60
44705;DHT22;30431;48.520;9.046;2023-12-20T12:02:42;8.00;90.30
44705;DHT22;30431;48.520;9.046;2023-12-20T12:05:12;7.90;90.10
44705;DHT22;30431;48.520;9.046;2023-12-20T12:07:39;7.80;90.80
44705;DHT22;30431;48.520;9.046;2023-12-20T12:10:07;7.70;90.90
44705;DHT22;30431;48.520;9.046;2023-12-20T12:12:35;7.70;91.40
44705;DHT22;30431;48.520;9.046;2023-12-20T12:15:02;7.60;91.80
44705;DHT22;30431;48.520;9.046;2023-12-20T12:17:30;7.50;92.00
44705;DHT22;30431;48.520;9.046;2023-12-20T12:20:06;7.50;92.40
44705;DHT22;30431;48.520;9.046;2023-12-20T12:22:34;7.50;92.60
44705;DHT22;30431;48.520;9.046;2023-12-20T12:25:12;7.40;92.40
44705;DHT22;30431;48.520;9.046;2023-12-20T12:27:40;7.40;92.60
44705;DHT22;30431;48.520;9.046;2023-12-20T12:30:11;7.40;92.70
44705;DHT22;30431;48.520;9.046;2023-12-20T12:32:40;7.40;92.10
44705;DHT22;30431;48.520;9.046;2023-12-20T12:35:08;7.40;92.00
44705;DHT22;30431;48.520;9.046;2023-12-20T12:37:40;7.40;92.10
44705;DHT22;30431;48.520;9.046;2023-12-20T12:40:12;7.50;92.50
44705;DHT22;30431;48.520;9.046;2023-12-20T12:42:43;7.50;92.40
44705;DHT22;30431;48.520;9.046;2023-12-20T12:45:11;7.60;91.70
44705;DHT22;30431;48.520;9.046;2023-12-20T12:47:39;7.60;92.10
44705;DHT22;30431;48.520;9.046;2023-12-20T12:50:09;7.60;90.90
44705;DHT22;30431;48.520;9.046;2023-12-20T12:52:39;7.60;90.40
44705;DHT22;30431;48.520;9.046;2023-12-20T12:55:08;7.70;90.80
44705;DHT22;30431;48.520;9.046;2023-12-20T12:57:37;7.60;90.40
44705;DHT22;30431;48.520;9.046;2023-12-20T13:00:05;7.50;90.50
44705;DHT22;30431;48.520;9.046;2023-12-20T13:02:37;7.50;91.20
44705;DHT22;30431;48.520;9.046;2023-12-20T13:05:05;7.50;91.30
44705;DHT22;30431;48.520;9.046;2023-12-20T13:07:37;7.50;91.50
44705;DHT22;30431;48.520;9.046;2023-12-20T13:10:05;7.50;90.90
44705;DHT22;30431;48.520;9.046;2023-12-20T13:12:32;7.60;90.50
44705;DHT22;30431;48.520;9.046;2023-12-20T13:14:59;7.70;90.60
44705;DHT22;30431;48.520;9.046;2023-12-20T13:17:26;7.70;90.20
44705;DHT22;30431;48.520;9.046;2023-12-20T13:19:58;7.70;90.40
44705;DHT22;30431;48.520;9.046;2023-12-20T13:22:26;7.70;90.00
44705;DHT22;30431;48.520;9.046;2023-12-20T13:24:53;7.70;90.60
44705;DHT22;30431;48.520;9.046;2023-12-20T13:27:20;7.60;90.50
44705;DHT22;30431;48.520;9.046;2023-12-20T13:29:47;7.70;90.50
44705;DHT22;30431;48.520;9.046;2023-12-20T13:32:16;7.70;90.50
44705;DHT22;30431;48.520;9.046;2023-12-20T13:34:49;7.80;90.20
44705;DHT22;30431;48.520;9.046;2023-12-20T13:37:17;7.80;90.20
44705;DHT22;30431;48.520;9.046;2023-12-20T13:39:45;7.80;90.30
44705;DHT22;30431;48.520;9.046;2023-12-20T13:42:15;7.70;90.60
44705;DHT22;30431;48.520;9.046;2023-12-20T13:44:42;7.70;90.80
44705;DHT22;30431;48.520;9.046;2023-12-20T13:47:11;7.70;91.00
44705;DHT22;30431;48.520;9.046;2023-12-20T13:49:38;7.70;90.70
44705;DHT22;30431;48.520;9.046;2023-12-20T13:52:05;7.70;90.80
44705;DHT22;30431;48.520;9.046;2023-12-20T13:54:33;7.70;91.10
44705;DHT22;30431;48.520;9.046;2023-12-20T13:57:02;7.70;91.60
44705;DHT22;30431;48.520;9.046;2023-12-20T13:59:42;7.60;91.60
44705;DHT22;30431;48.520;9.046;2023-12-20T14:02:09;7.60;91.60
44705;DHT22;30431;48.520;9.046;2023-12-20T14:04:41;7.60;91.60
44705;DHT22;30431;48.520;9.046;2023-12-20T14:07:10;7.50;91.40
44705;DHT22;30431;48.520;9.046;2023-12-20T14:09:40;7.40;91.60
44705;DHT22;30431;48.520;9.046;2023-12-20T14:12:15;7.40;91.60
44705;DHT22;30431;48.520;9.046;2023-12-20T14:14:42;7.40;92.10
44705;DHT22;30431;48.520;9.046;2023-12-20T14:17:09;7.40;91.80
44705;DHT22;30431;48.520;9.046;2023-12-20T14:19:39;7.40;91.50
44705;DHT22;30431;48.520;9.046;2023-12-20T14:22:08;7.40;91.80
44705;DHT22;30431;48.520;9.046;2023-12-20T14:24:35;7.30;91.20
44705;DHT22;30431;48.520;9.046;2023-12-20T14:27:03;7.30;92.00
44705;DHT22;30431;48.520;9.046;2023-12-20T14:29:32;7.30;92.20
44705;DHT22;30431;48.520;9.046;2023-12-20T14:31:59;7.30;92.00
44705;DHT22;30431;48.520;9.046;2023-12-20T14:34:28;7.20;92.60
44705;DHT22;30431;48.520;9.046;2023-12-20T14:36:55;7.10;92.80
44705;DHT22;30431;48.520;9.046;2023-12-20T14:39:22;7.10;93.40
44705;DHT22;30431;48.520;9.046;2023-12-20T14:41:52;7.00;93.70
44705;DHT22;30431;48.520;9.046;2023-12-20T14:44:19;7.00;93.70
44705;DHT22;30431;48.520;9.046;2023-12-20T14:46:48;6.90;93.70
44705;DHT22;30431;48.520;9.046;2023-12-20T14:49:16;6.90;93.90
44705;DHT22;30431;48.520;9.046;2023-12-20T14:51:44;6.90;94.00
44705;DHT22;30431;48.520;9.046;2023-12-20T14:54:11;6.80;94.00
44705;DHT22;30431;48.520;9.046;2023-12-20T14:56:38;6.70;94.30
44705;DHT22;30431;48.520;9.046;2023-12-20T14:59:07;6.70;94.40
44705;DHT22;30431;48.520;9.046;2023-12-20T15:01:37;6.60;94.70
44705;DHT22;30431;48.520;9.046;2023-12-20T15:04:08;6.50;95.30
44705;DHT22;30431;48.520;9.046;2023-12-20T15:06:37;6.50;96.00
44705;DHT22;30431;48.520;9.046;2023-12-20T15:09:06;6.50;95.80
44705;DHT22;30431;48.520;9.046;2023-12-20T15:11:37;6.40;95.90
44705;DHT22;30431;48.520;9.046;2023-12-20T15:14:04;6.40;95.50
44705;DHT22;30431;48.520;9.046;2023-12-20T15:16:31;6.40;95.90
44705;DHT22;30431;48.520;9.046;2023-12-20T15:18:58;6.40;95.70
44705;DHT22;30431;48.520;9.046;2023-12-20T15:21:25;6.40;95.50
44705;DHT22;30431;48.520;9.046;2023-12-20T15:23:58;6.40;95.60
44705;DHT22;30431;48.520;9.046;2023-12-20T15:26:42;6.40;95.60
44705;DHT22;30431;48.520;9.046;2023-12-20T15:29:10;6.30;95.50
44705;DHT22;30431;48.520;9.046;2023-12-20T15:31:43;6.30;95.90
44705;DHT22;30431;48.520;9.046;2023-12-20T15:34:13;6.20;96.10
44705;DHT22;30431;48.520;9.046;2023-12-20T15:36:42;6.20;96.40
44705;DHT22;30431;48.520;9.046;2023-12-20T15:39:11;6.20;96.30
44705;DHT22;30431;48.520;9.046;2023-12-20T15:41:41;6.10;96.60
44705;DHT22;30431;48.520;9.046;2023-12-20T15:44:08;6.10;96.60
44705;DHT22;30431;48.520;9.046;2023-12-20T15:46:35;6.00;97.00
44705;DHT22;30431;48.520;9.046;2023-12-20T15:49:05;5.90;96.80
44705;DHT22;30431;48.520;9.046;2023-12-20T15:51:32;5.80;97.20
44705;DHT22;30431;48.520;9.046;2023-12-20T15:53:59;5.80;97.20
44705;DHT22;30431;48.520;9.046;2023-12-20T15:56:35;5.80;97.30
44705;DHT22;30431;48.520;9.046;2023-12-20T15:59:03;5.80;97.20
44705;DHT22;30431;48.520;9.046;2023-12-20T16:01:30;5.90;97.20
44705;DHT22;30431;48.520;9.046;2023-12-20T16:03:58;5.90;97.10